sensor_id;sensor_type;location;lat;lon;timestamp;temperature;humidity
51793;DHT22;37850;53.178;6.376;2023-07-13T00:01:47;17.00;99.90
51793;DHT22;37850;53.178;6.376;2023-07-13T00:04:16;17.00;99.90
51793;DHT22;37850;53.178;6.376;2023-07-13T00:06:43;17.00;99.90
51793;DHT22;37850;53.178;6.376;2023-07-13T00:09:15;17.00;99.90
51793;DHT22;37850;53.178;6.376;2023-07-13T00:11:42;17.00;99.90
51793;DHT22;37850;53.178;6.376;2023-07-13T00:14:09;17.00;99.90
51793;DHT22;37850;53.178;6.376;2023-07-13T00:16:37;17.00;99.90
51793;DHT22;37850;53.178;6.376;2023-07-13T00:19:04;17.00;99.90
51793;DHT22;37850;53.178;6.376;2023-07-13T00:21:30;17.00;99.90
51793;DHT22;37850;53.178;6.376;2023-07-13T00:23:57;17.00;99.90
51793;DHT22;37850;53.178;6.376;2023-07-13T00:26:23;17.00;99.90
51793;DHT22;37850;53.178;6.376;2023-07-13T00:28:49;17.00;99.90
51793;DHT22;37850;53.178;6.376;2023-07-13T00:31:15;17.00;99.90
51793;DHT22;37850;53.178;6.376;2023-07-13T00:33:41;17.00;99.90
51793;DHT22;37850;53.178;6.376;2023-07-13T00:36:07;17.00;99.90
51793;DHT22;37850;53.178;6.376;2023-07-13T00:38:33;17.00;99.90
51793;DHT22;37850;53.178;6.376;2023-07-13T00:40:59;17.00;99.90
51793;DHT22;37850;53.178;6.376;2023-07-13T00:43:27;17.00;99.90
51793;DHT22;37850;53.178;6.376;2023-07-13T00:48:33;17.00;99.90
51793;DHT22;37850;53.178;6.376;2023-07-13T00:51:00;17.00;99.90
51793;DHT22;37850;53.178;6.376;2023-07-13T00:53:28;16.90;99.90
51793;DHT22;37850;53.178;6.376;2023-07-13T00:55:55;16.90;99.90
51793;DHT22;37850;53.178;6.376;2023-07-13T00:58:26;16.90;99.90
51793;DHT22;37850;53.178;6.376;2023-07-13T01:00:52;16.90;99.90
51793;DHT22;37850;53.178;6.376;2023-07-13T01:03:19;16.90;99.90
51793;DHT22;37850;53.178;6.376;2023-07-13T01:05:47;16.90;99.90
51793;DHT22;37850;53.178;6.376;2023-07-13T01:08:14;16.80;99.90
51793;DHT22;37850;53.178;6.376;2023-07-13T01:10:39;16.80;99.90
51793;DHT22;37850;53.178;6.376;2023-07-13T01:13:07;16.80;99.90
51793;DHT22;37850;53.178;6.376;2023-07-13T01:18:14;16.80;99.90
51793;DHT22;37850;53.178;6.376;2023-07-13T01:20:41;16.80;99.90
51793;DHT22;37850;53.178;6.376;2023-07-13T01:23:09;16.80;99.90
51793;DHT22;37850;53.178;6.376;2023-07-13T01:25:36;16.70;99.90
51793;DHT22;37850;53.178;6.376;2023-07-13T01:28:04;16.70;99.90
51793;DHT22;37850;53.178;6.376;2023-07-13T01:30:29;16.70;99.90
51793;DHT22;37850;53.178;6.376;2023-07-13T01:32:56;16.70;99.90
51793;DHT22;37850;53.178;6.376;2023-07-13T01:35:22;16.70;99.90
51793;DHT22;37850;53.178;6.376;2023-07-13T01:37:48;16.60;99.90
51793;DHT22;37850;53.178;6.376;2023-07-13T01:40:14;16.60;99.90
51793;DHT22;37850;53.178;6.376;2023-07-13T01:42:40;16.60;99.90
51793;DHT22;37850;53.178;6.376;2023-07-13T01:45:06;16.60;99.90
51793;DHT22;37850;53.178;6.376;2023-07-13T01:47:32;16.60;99.90
51793;DHT22;37850;53.178;6.376;2023-07-13T01:49:58;16.60;99.90
51793;DHT22;37850;53.178;6.376;2023-07-13T01:52:24;16.60;99.90
51793;DHT22;37850;53.178;6.376;2023-07-13T01:54:50;16.60;99.90
51793;DHT22;37850;53.178;6.376;2023-07-13T01:57:16;16.60;99.90
51793;DHT22;37850;53.178;6.376;2023-07-13T01:59:41;16.60;99.90
51793;DHT22;37850;53.178;6.376;2023-07-13T02:02:07;16.60;99.90
51793;DHT22;37850;53.178;6.376;2023-07-13T02:04:34;16.60;99.90
51793;DHT22;37850;53.178;6.376;2023-07-13T02:07:00;16.60;99.90
51793;DHT22;37850;53.178;6.376;2023-07-13T02:09:26;16.50;99.90
51793;DHT22;37850;53.178;6.376;2023-07-13T02:11:52;16.60;99.90
51793;DHT22;37850;53.178;6.376;2023-07-13T02:14:18;16.50;99.90
51793;DHT22;37850;53.178;6.376;2023-07-13T02:16:43;16.50;99.90
51793;DHT22;37850;53.178;6.376;2023-07-13T02:19:09;16.50;99.90
51793;DHT22;37850;53.178;6.376;2023-07-13T02:21:35;16.50;99.90
51793;DHT22;37850;53.178;6.376;2023-07-13T02:24:01;16.50;99.90
51793;DHT22;37850;53.178;6.376;2023-07-13T02:26:27;16.40;99.90
51793;DHT22;37850;53.178;6.376;2023-07-13T02:28:53;16.40;99.90
51793;DHT22;37850;53.178;6.376;2023-07-13T02:31:19;16.40;99.90
51793;DHT22;37850;53.178;6.376;2023-07-13T02:33:45;16.40;99.90
51793;DHT22;37850;53.178;6.376;2023-07-13T02:36:13;16.40;99.90
51793;DHT22;37850;53.178;6.376;2023-07-13T02:38:42;16.40;99.90
51793;DHT22;37850;53.178;6.376;2023-07-13T02:41:08;16.40;99.90
51793;DHT22;37850;53.178;6.376;2023-07-13T02:43:35;16.30;99.90
51793;DHT22;37850;53.178;6.376;2023-07-13T02:46:02;16.30;99.90
51793;DHT22;37850;53.178;6.376;2023-07-13T02:48:33;16.30;99.90
51793;DHT22;37850;53.178;6.376;2023-07-13T02:50:59;16.30;99.90
51793;DHT22;37850;53.178;6.376;2023-07-13T02:53:25;16.30;99.90
51793;DHT22;37850;53.178;6.376;2023-07-13T02:55:51;16.30;99.90
51793;DHT22;37850;53.178;6.376;2023-07-13T02:58:17;16.30;99.90
51793;DHT22;37850;53.178;6.376;2023-07-13T03:00:44;16.20;99.90
51793;DHT22;37850;53.178;6.376;2023-07-13T03:03:12;16.20;99.90
51793;DHT22;37850;53.178;6.376;2023-07-13T03:05:42;16.20;99.90
51793;DHT22;37850;53.178;6.376;2023-07-13T03:08:09;16.20;99.90
51793;DHT22;37850;53.178;6.376;2023-07-13T03:10:35;16.20;99.90
51793;DHT22;37850;53.178;6.376;2023-07-13T03:13:01;16.20;99.90
51793;DHT22;37850;53.178;6.376;2023-07-13T03:15:27;16.10;99.90
51793;DHT22;37850;53.178;6.376;2023-07-13T03:17:53;16.10;99.90
51793;DHT22;37850;53.178;6.376;2023-07-13T03:20:19;16.10;99.90
51793;DHT22;37850;53.178;6.376;2023-07-13T03:22:45;16.10;99.90
51793;DHT22;37850;53.178;6.376;2023-07-13T03:25:11;16.10;99.90
51793;DHT22;37850;53.178;6.376;2023-07-13T03:27:38;16.00;99.90
51793;DHT22;37850;53.178;6.376;2023-07-13T03:30:05;16.00;99.90
51793;DHT22;37850;53.178;6.376;2023-07-13T03:32:31;16.10;99.90
51793;DHT22;37850;53.178;6.376;2023-07-13T03:34:57;16.00;99.90
51793;DHT22;37850;53.178;6.376;2023-07-13T03:37:22;16.10;99.90
51793;DHT22;37850;53.178;6.376;2023-07-13T03:39:49;16.10;99.90
51793;DHT22;37850;53.178;6.376;2023-07-13T03:42:15;16.10;99.90
51793;DHT22;37850;53.178;6.376;2023-07-13T03:44:41;16.10;99.90
51793;DHT22;37850;53.178;6.376;2023-07-13T03:47:07;16.00;99.90
51793;DHT22;37850;53.178;6.376;2023-07-13T03:49:34;16.10;99.90
51793;DHT22;37850;53.178;6.376;2023-07-13T03:52:00;16.10;99.90
51793;DHT22;37850;53.178;6.376;2023-07-13T03:54:26;16.00;99.90
51793;DHT22;37850;53.178;6.376;2023-07-13T03:56:52;16.10;99.90
51793;DHT22;37850;53.178;6.376;2023-07-13T03:59:18;16.10;99.90
51793;DHT22;37850;53.178;6.376;2023-07-13T04:01:44;16.10;99.90
51793;DHT22;37850;53.178;6.376;2023-07-13T04:04:10;16.10;99.90
51793;DHT22;37850;53.178;6.376;2023-07-13T04:06:36;16.10;99.90
51793;DHT22;37850;53.178;6.376;2023-07-13T04:09:03;16.10;99.90
51793;DHT22;37850;53.178;6.376;2023-07-13T04:11:31;16.10;99.90
51793;DHT22;37850;53.178;6.376;2023-07-13T04:13:58;16.10;99.90
51793;DHT22;37850;53.178;6.376;2023-07-13T04:16:24;16.00;99.90
51793;DHT22;37850;53.178;6.376;2023-07-13T04:18:50;16.10;99.90
51793;DHT22;37850;53.178;6.376;2023-07-13T04:21:20;16.00;99.90
51793;DHT22;37850;53.178;6.376;2023-07-13T04:23:46;16.00;99.90
51793;DHT22;37850;53.178;6.376;2023-07-13T04:26:12;16.00;99.90
51793;DHT22;37850;53.178;6.376;2023-07-13T04:28:38;16.10;99.90
51793;DHT22;37850;53.178;6.376;2023-07-13T04:31:04;16.10;99.90
51793;DHT22;37850;53.178;6.376;2023-07-13T04:33:30;16.10;99.90
51793;DHT22;37850;53.178;6.376;2023-07-13T04:35:56;16.10;99.90
51793;DHT22;37850;53.178;6.376;2023-07-13T04:38:28;16.10;99.90
51793;DHT22;37850;53.178;6.376;2023-07-13T04:40:56;16.20;99.90
51793;DHT22;37850;53.178;6.376;2023-07-13T04:43:23;16.30;99.90
51793;DHT22;37850;53.178;6.376;2023-07-13T04:45:51;16.50;99.90
51793;DHT22;37850;53.178;6.376;2023-07-13T04:48:21;16.70;99.90
51793;DHT22;37850;53.178;6.376;2023-07-13T04:50:57;16.80;99.90
51793;DHT22;37850;53.178;6.376;2023-07-13T04:53:23;17.00;99.90
51793;DHT22;37850;53.178;6.376;2023-07-13T04:55:49;17.00;99.90
51793;DHT22;37850;53.178;6.376;2023-07-13T04:58:15;17.00;99.90
51793;DHT22;37850;53.178;6.376;2023-07-13T05:00:41;17.10;99.90
51793;DHT22;37850;53.178;6.376;2023-07-13T05:03:06;17.10;99.90
51793;DHT22;37850;53.178;6.376;2023-07-13T05:05:32;17.20;99.90
51793;DHT22;37850;53.178;6.376;2023-07-13T05:07:58;17.40;99.90
51793;DHT22;37850;53.178;6.376;2023-07-13T05:10:24;17.60;99.90
51793;DHT22;37850;53.178;6.376;2023-07-13T05:12:50;17.90;99.90
51793;DHT22;37850;53.178;6.376;2023-07-13T05:15:16;18.10;99.90
51793;DHT22;37850;53.178;6.376;2023-07-13T05:17:47;18.30;99.90
51793;DHT22;37850;53.178;6.376;2023-07-13T05:20:13;18.50;99.90
51793;DHT22;37850;53.178;6.376;2023-07-13T05:22:39;18.70;99.90
51793;DHT22;37850;53.178;6.376;2023-07-13T05:25:06;18.90;99.90
51793;DHT22;37850;53.178;6.376;2023-07-13T05:27:33;19.00;99.90
51793;DHT22;37850;53.178;6.376;2023-07-13T05:29:59;19.20;99.90
51793;DHT22;37850;53.178;6.376;2023-07-13T05:32:25;19.20;99.90
51793;DHT22;37850;53.178;6.376;2023-07-13T05:34:50;19.10;99.90
51793;DHT22;37850;53.178;6.376;2023-07-13T05:37:16;19.00;99.90
51793;DHT22;37850;53.178;6.376;2023-07-13T05:39:42;18.80;99.90
51793;DHT22;37850;53.178;6.376;2023-07-13T05:42:08;18.70;99.90
51793;DHT22;37850;53.178;6.376;2023-07-13T05:44:33;18.60;99.90
51793;DHT22;37850;53.178;6.376;2023-07-13T05:46:59;18.50;99.90
51793;DHT22;37850;53.178;6.376;2023-07-13T05:49:25;18.40;99.90
51793;DHT22;37850;53.178;6.376;2023-07-13T05:51:51;18.30;99.90
51793;DHT22;37850;53.178;6.376;2023-07-13T05:54:16;18.30;99.90
51793;DHT22;37850;53.178;6.376;2023-07-13T05:56:42;18.20;99.90
51793;DHT22;37850;53.178;6.376;2023-07-13T05:59:08;18.20;99.90
51793;DHT22;37850;53.178;6.376;2023-07-13T06:01:34;18.20;99.90
51793;DHT22;37850;53.178;6.376;2023-07-13T06:04:00;18.20;99.90
51793;DHT22;37850;53.178;6.376;2023-07-13T06:06:26;18.20;99.90
51793;DHT22;37850;53.178;6.376;2023-07-13T06:08:52;18.30;99.90
51793;DHT22;37850;53.178;6.376;2023-07-13T06:11:20;18.30;99.90
51793;DHT22;37850;53.178;6.376;2023-07-13T06:13:47;18.30;99.90
51793;DHT22;37850;53.178;6.376;2023-07-13T06:16:13;18.30;99.90
51793;DHT22;37850;53.178;6.376;2023-07-13T06:18:40;18.40;99.90
51793;DHT22;37850;53.178;6.376;2023-07-13T06:21:12;18.40;99.90
51793;DHT22;37850;53.178;6.376;2023-07-13T06:23:38;18.50;99.90
51793;DHT22;37850;53.178;6.376;2023-07-13T06:26:04;18.60;99.90
51793;DHT22;37850;53.178;6.376;2023-07-13T06:28:31;18.60;99.90
51793;DHT22;37850;53.178;6.376;2023-07-13T06:30:58;18.60;99.90
51793;DHT22;37850;53.178;6.376;2023-07-13T06:33:24;18.60;99.90
51793;DHT22;37850;53.178;6.376;2023-07-13T06:35:50;18.60;99.90
51793;DHT22;37850;53.178;6.376;2023-07-13T06:38:16;18.60;99.90
51793;DHT22;37850;53.178;6.376;2023-07-13T06:40:41;18.70;99.90
51793;DHT22;37850;53.178;6.376;2023-07-13T06:43:07;18.70;99.90
51793;DHT22;37850;53.178;6.376;2023-07-13T06:45:41;18.80;99.90
51793;DHT22;37850;53.178;6.376;2023-07-13T06:48:07;18.80;99.90
51793;DHT22;37850;53.178;6.376;2023-07-13T06:50:33;18.80;99.90
51793;DHT22;37850;53.178;6.376;2023-07-13T06:52:59;18.80;99.90
51793;DHT22;37850;53.178;6.376;2023-07-13T06:55:26;18.90;99.90
51793;DHT22;37850;53.178;6.376;2023-07-13T06:57:52;18.90;99.90
51793;DHT22;37850;53.178;6.376;2023-07-13T07:00:18;19.00;99.90
51793;DHT22;37850;53.178;6.376;2023-07-13T07:02:44;19.00;99.90
51793;DHT22;37850;53.178;6.376;2023-07-13T07:05:09;19.00;99.90
51793;DHT22;37850;53.178;6.376;2023-07-13T07:07:35;19.00;99.90
51793;DHT22;37850;53.178;6.376;2023-07-13T07:10:01;18.90;99.90
51793;DHT22;37850;53.178;6.376;2023-07-13T07:12:27;18.90;99.90
51793;DHT22;37850;53.178;6.376;2023-07-13T07:14:53;18.80;99.90
51793;DHT22;37850;53.178;6.376;2023-07-13T07:17:18;18.70;99.90
51793;DHT22;37850;53.178;6.376;2023-07-13T07:19:44;18.70;99.90
51793;DHT22;37850;53.178;6.376;2023-07-13T07:22:10;18.60;99.90
51793;DHT22;37850;53.178;6.376;2023-07-13T07:24:36;18.60;99.90
51793;DHT22;37850;53.178;6.376;2023-07-13T07:27:01;18.50;99.90
51793;DHT22;37850;53.178;6.376;2023-07-13T07:29:27;18.50;99.90
51793;DHT22;37850;53.178;6.376;2023-07-13T07:31:53;18.60;99.90
51793;DHT22;37850;53.178;6.376;2023-07-13T07:34:19;18.60;99.90
51793;DHT22;37850;53.178;6.376;2023-07-13T07:36:45;18.60;99.90
51793;DHT22;37850;53.178;6.376;2023-07-13T07:39:11;18.70;99.90
51793;DHT22;37850;53.178;6.376;2023-07-13T07:41:38;18.70;99.90
51793;DHT22;37850;53.178;6.376;2023-07-13T07:44:04;18.70;99.90
51793;DHT22;37850;53.178;6.376;2023-07-13T07:46:30;18.70;99.90
51793;DHT22;37850;53.178;6.376;2023-07-13T07:48:56;18.70;99.90
51793;DHT22;37850;53.178;6.376;2023-07-13T07:51:22;18.60;99.90
51793;DHT22;37850;53.178;6.376;2023-07-13T07:53:48;18.60;99.90
51793;DHT22;37850;53.178;6.376;2023-07-13T07:56:14;18.50;99.90
51793;DHT22;37850;53.178;6.376;2023-07-13T07:58:42;18.40;99.90
51793;DHT22;37850;53.178;6.376;2023-07-13T08:01:08;18.40;99.90
51793;DHT22;37850;53.178;6.376;2023-07-13T08:03:34;18.30;99.90
51793;DHT22;37850;53.178;6.376;2023-07-13T08:06:00;18.30;99.90
51793;DHT22;37850;53.178;6.376;2023-07-13T08:08:26;18.20;99.90
51793;DHT22;37850;53.178;6.376;2023-07-13T08:10:52;18.20;99.90
51793;DHT22;37850;53.178;6.376;2023-07-13T08:13:18;18.20;99.90
51793;DHT22;37850;53.178;6.376;2023-07-13T08:15:44;18.40;99.90
51793;DHT22;37850;53.178;6.376;2023-07-13T08:18:10;18.60;99.90
51793;DHT22;37850;53.178;6.376;2023-07-13T08:20:39;18.80;99.90
51793;DHT22;37850;53.178;6.376;2023-07-13T08:23:06;18.90;99.90
51793;DHT22;37850;53.178;6.376;2023-07-13T08:25:32;19.10;99.90
51793;DHT22;37850;53.178;6.376;2023-07-13T08:27:58;19.10;99.90
51793;DHT22;37850;53.178;6.376;2023-07-13T08:30:23;19.20;99.90
51793;DHT22;37850;53.178;6.376;2023-07-13T08:32:49;19.20;99.90
51793;DHT22;37850;53.178;6.376;2023-07-13T08:35:16;19.20;99.90
51793;DHT22;37850;53.178;6.376;2023-07-13T08:37:42;19.20;99.90
51793;DHT22;37850;53.178;6.376;2023-07-13T08:40:09;19.20;99.90
51793;DHT22;37850;53.178;6.376;2023-07-13T08:42:43;19.40;99.90
51793;DHT22;37850;53.178;6.376;2023-07-13T08:45:20;19.50;99.90
51793;DHT22;37850;53.178;6.376;2023-07-13T08:48:16;19.60;99.90
51793;DHT22;37850;53.178;6.376;2023-07-13T08:50:56;19.70;99.90
51793;DHT22;37850;53.178;6.376;2023-07-13T08:53:33;19.70;99.90
51793;DHT22;37850;53.178;6.376;2023-07-13T08:56:00;19.80;99.90
51793;DHT22;37850;53.178;6.376;2023-07-13T08:58:27;19.80;99.90
51793;DHT22;37850;53.178;6.376;2023-07-13T09:01:24;19.80;99.90
51793;DHT22;37850;53.178;6.376;2023-07-13T09:04:07;19.80;99.90
51793;DHT22;37850;53.178;6.376;2023-07-13T09:07:25;19.80;99.90
51793;DHT22;37850;53.178;6.376;2023-07-13T09:12:39;20.00;99.90
51793;DHT22;37850;53.178;6.376;2023-07-13T09:15:27;20.10;99.90
51793;DHT22;37850;53.178;6.376;2023-07-13T09:18:00;20.30;99.90
51793;DHT22;37850;53.178;6.376;2023-07-13T09:23:15;20.50;99.90
51793;DHT22;37850;53.178;6.376;2023-07-13T09:25:45;20.60;99.90
51793;DHT22;37850;53.178;6.376;2023-07-13T09:28:19;20.70;99.90
51793;DHT22;37850;53.178;6.376;2023-07-13T09:31:03;20.80;99.90
51793;DHT22;37850;53.178;6.376;2023-07-13T09:33:30;20.90;99.90
51793;DHT22;37850;53.178;6.376;2023-07-13T09:35:59;21.00;99.90
51793;DHT22;37850;53.178;6.376;2023-07-13T09:38:28;21.10;99.90
51793;DHT22;37850;53.178;6.376;2023-07-13T09:44:01;21.20;99.90
51793;DHT22;37850;53.178;6.376;2023-07-13T09:46:27;21.20;99.90
51793;DHT22;37850;53.178;6.376;2023-07-13T09:48:52;21.30;99.90
51793;DHT22;37850;53.178;6.376;2023-07-13T09:51:18;21.40;99.90
51793;DHT22;37850;53.178;6.376;2023-07-13T09:53:44;21.40;99.90
51793;DHT22;37850;53.178;6.376;2023-07-13T09:56:24;21.40;99.90
51793;DHT22;37850;53.178;6.376;2023-07-13T09:58:50;21.30;99.90
51793;DHT22;37850;53.178;6.376;2023-07-13T10:01:16;21.10;99.90
51793;DHT22;37850;53.178;6.376;2023-07-13T10:03:56;21.00;99.90
51793;DHT22;37850;53.178;6.376;2023-07-13T10:06:22;20.90;99.90
51793;DHT22;37850;53.178;6.376;2023-07-13T10:08:50;20.90;99.90
51793;DHT22;37850;53.178;6.376;2023-07-13T10:11:22;21.00;99.90
51793;DHT22;37850;53.178;6.376;2023-07-13T10:13:54;21.00;99.90
51793;DHT22;37850;53.178;6.376;2023-07-13T10:16:23;21.00;99.90
51793;DHT22;37850;53.178;6.376;2023-07-13T10:18:53;21.00;99.90
51793;DHT22;37850;53.178;6.376;2023-07-13T10:21:22;21.00;99.90
51793;DHT22;37850;53.178;6.376;2023-07-13T10:23:55;21.00;99.90
51793;DHT22;37850;53.178;6.376;2023-07-13T10:26:29;21.00;99.90
51793;DHT22;37850;53.178;6.376;2023-07-13T10:28:59;20.90;99.90
51793;DHT22;37850;53.178;6.376;2023-07-13T10:31:26;21.00;99.90
51793;DHT22;37850;53.178;6.376;2023-07-13T10:33:52;21.10;99.90
51793;DHT22;37850;53.178;6.376;2023-07-13T10:36:48;21.20;99.90
51793;DHT22;37850;53.178;6.376;2023-07-13T10:39:19;21.30;99.90
51793;DHT22;37850;53.178;6.376;2023-07-13T10:41:52;21.30;99.90
51793;DHT22;37850;53.178;6.376;2023-07-13T10:44:29;21.20;99.90
51793;DHT22;37850;53.178;6.376;2023-07-13T10:47:07;21.10;99.90
51793;DHT22;37850;53.178;6.376;2023-07-13T10:49:36;21.20;99.90
51793;DHT22;37850;53.178;6.376;2023-07-13T10:52:03;21.10;99.90
51793;DHT22;37850;53.178;6.376;2023-07-13T10:57:10;21.20;99.90
51793;DHT22;37850;53.178;6.376;2023-07-13T10:59:40;21.20;99.90
51793;DHT22;37850;53.178;6.376;2023-07-13T11:02:21;21.20;99.90
51793;DHT22;37850;53.178;6.376;2023-07-13T11:04:49;21.20;99.90
51793;DHT22;37850;53.178;6.376;2023-07-13T11:07:24;21.20;99.90
51793;DHT22;37850;53.178;6.376;2023-07-13T11:09:59;21.20;99.90
51793;DHT22;37850;53.178;6.376;2023-07-13T11:12:48;21.30;99.90
51793;DHT22;37850;53.178;6.376;2023-07-13T11:15:14;21.30;99.90
51793;DHT22;37850;53.178;6.376;2023-07-13T11:17:54;21.30;99.90
51793;DHT22;37850;53.178;6.376;2023-07-13T11:20:33;21.40;99.90
51793;DHT22;37850;53.178;6.376;2023-07-13T11:25:42;21.60;99.90
51793;DHT22;37850;53.178;6.376;2023-07-13T11:36:16;21.90;99.90
51793;DHT22;37850;53.178;6.376;2023-07-13T11:39:16;22.00;99.90
51793;DHT22;37850;53.178;6.376;2023-07-13T11:44:18;22.10;99.90
51793;DHT22;37850;53.178;6.376;2023-07-13T11:46:50;22.10;99.90
51793;DHT22;37850;53.178;6.376;2023-07-13T11:49:22;22.20;99.90
51793;DHT22;37850;53.178;6.376;2023-07-13T11:51:48;22.30;99.90
51793;DHT22;37850;53.178;6.376;2023-07-13T11:54:27;22.30;99.90
51793;DHT22;37850;53.178;6.376;2023-07-13T11:56:55;22.30;99.90
51793;DHT22;37850;53.178;6.376;2023-07-13T11:59:23;22.40;99.90
51793;DHT22;37850;53.178;6.376;2023-07-13T12:01:53;22.40;99.90
51793;DHT22;37850;53.178;6.376;2023-07-13T12:04:32;22.40;99.90
51793;DHT22;37850;53.178;6.376;2023-07-13T12:07:17;22.40;99.90
51793;DHT22;37850;53.178;6.376;2023-07-13T12:09:43;22.50;99.90
51793;DHT22;37850;53.178;6.376;2023-07-13T12:12:14;22.60;99.90
51793;DHT22;37850;53.178;6.376;2023-07-13T12:14:42;22.50;99.90
51793;DHT22;37850;53.178;6.376;2023-07-13T12:17:21;22.60;99.90
51793;DHT22;37850;53.178;6.376;2023-07-13T12:19:51;22.60;99.90
51793;DHT22;37850;53.178;6.376;2023-07-13T12:22:19;22.70;99.90
51793;DHT22;37850;53.178;6.376;2023-07-13T12:24:47;22.70;99.90
51793;DHT22;37850;53.178;6.376;2023-07-13T12:27:21;22.70;99.90
51793;DHT22;37850;53.178;6.376;2023-07-13T12:30:05;22.80;99.90
51793;DHT22;37850;53.178;6.376;2023-07-13T12:32:32;22.80;99.90
51793;DHT22;37850;53.178;6.376;2023-07-13T12:35:15;22.80;99.90
51793;DHT22;37850;53.178;6.376;2023-07-13T12:37:46;22.80;99.90
51793;DHT22;37850;53.178;6.376;2023-07-13T12:40:15;22.70;99.90
51793;DHT22;37850;53.178;6.376;2023-07-13T12:42:43;22.70;99.90
51793;DHT22;37850;53.178;6.376;2023-07-13T12:45:26;22.70;99.90
51793;DHT22;37850;53.178;6.376;2023-07-13T12:47:55;22.70;99.90
51793;DHT22;37850;53.178;6.376;2023-07-13T12:50:41;22.70;99.90
51793;DHT22;37850;53.178;6.376;2023-07-13T12:53:14;22.60;99.90
51793;DHT22;37850;53.178;6.376;2023-07-13T12:55:52;22.60;99.90
51793;DHT22;37850;53.178;6.376;2023-07-13T12:58:41;22.60;99.90
51793;DHT22;37850;53.178;6.376;2023-07-13T13:01:10;22.60;99.90
51793;DHT22;37850;53.178;6.376;2023-07-13T13:03:50;22.60;99.90
51793;DHT22;37850;53.178;6.376;2023-07-13T13:08:49;22.70;99.90
51793;DHT22;37850;53.178;6.376;2023-07-13T13:11:16;22.70;99.90
51793;DHT22;37850;53.178;6.376;2023-07-13T13:13:43;22.70;99.90
51793;DHT22;37850;53.178;6.376;2023-07-13T13:18:45;22.60;99.90
51793;DHT22;37850;53.178;6.376;2023-07-13T13:21:12;22.70;99.90
51793;DHT22;37850;53.178;6.376;2023-07-13T13:23:38;22.70;99.90
51793;DHT22;37850;53.178;6.376;2023-07-13T13:26:08;22.80;99.90
51793;DHT22;37850;53.178;6.376;2023-07-13T13:28:34;22.90;99.90
51793;DHT22;37850;53.178;6.376;2023-07-13T13:31:00;22.80;99.90
51793;DHT22;37850;53.178;6.376;2023-07-13T13:33:26;22.80;99.90
51793;DHT22;37850;53.178;6.376;2023-07-13T13:35:52;22.70;99.90
51793;DHT22;37850;53.178;6.376;2023-07-13T13:38:24;22.70;99.90
51793;DHT22;37850;53.178;6.376;2023-07-13T13:40:50;22.60;99.90
51793;DHT22;37850;53.178;6.376;2023-07-13T13:43:18;22.50;99.90
51793;DHT22;37850;53.178;6.376;2023-07-13T13:45:45;22.50;99.90
51793;DHT22;37850;53.178;6.376;2023-07-13T13:48:20;22.40;99.90
51793;DHT22;37850;53.178;6.376;2023-07-13T13:50:48;22.30;99.90
51793;DHT22;37850;53.178;6.376;2023-07-13T13:53:14;22.20;99.90
51793;DHT22;37850;53.178;6.376;2023-07-13T13:55:40;22.10;99.90
51793;DHT22;37850;53.178;6.376;2023-07-13T13:58:09;22.10;99.90
51793;DHT22;37850;53.178;6.376;2023-07-13T14:00:37;22.00;99.90
51793;DHT22;37850;53.178;6.376;2023-07-13T14:03:04;22.10;99.90
51793;DHT22;37850;53.178;6.376;2023-07-13T14:05:31;22.10;99.90
51793;DHT22;37850;53.178;6.376;2023-07-13T14:07:57;22.20;99.90
51793;DHT22;37850;53.178;6.376;2023-07-13T14:10:23;22.20;99.90
51793;DHT22;37850;53.178;6.376;2023-07-13T14:12:52;22.20;99.90
51793;DHT22;37850;53.178;6.376;2023-07-13T14:15:27;22.10;99.90
51793;DHT22;37850;53.178;6.376;2023-07-13T14:17:54;22.10;99.90
51793;DHT22;37850;53.178;6.376;2023-07-13T14:20:22;22.10;99.90
51793;DHT22;37850;53.178;6.376;2023-07-13T14:22:50;22.10;99.90
51793;DHT22;37850;53.178;6.376;2023-07-13T14:25:17;22.20;99.90
51793;DHT22;37850;53.178;6.376;2023-07-13T14:27:44;22.20;99.90
51793;DHT22;37850;53.178;6.376;2023-07-13T14:30:14;22.20;99.90
51793;DHT22;37850;53.178;6.376;2023-07-13T14:32:40;22.20;99.90
51793;DHT22;37850;53.178;6.376;2023-07-13T14:35:14;22.20;99.90
51793;DHT22;37850;53.178;6.376;2023-07-13T14:37:41;22.20;99.90
51793;DHT22;37850;53.178;6.376;2023-07-13T14:40:23;22.20;99.90
51793;DHT22;37850;53.178;6.376;2023-07-13T14:42:50;22.10;99.90
51793;DHT22;37850;53.178;6.376;2023-07-13T14:45:18;22.10;99.90
51793;DHT22;37850;53.178;6.376;2023-07-13T14:47:44;22.10;99.90
51793;DHT22;37850;53.178;6.376;2023-07-13T14:52:41;22.20;99.90
51793;DHT22;37850;53.178;6.376;2023-07-13T14:55:12;22.20;99.90
51793;DHT22;37850;53.178;6.376;2023-07-13T14:57:39;22.30;99.90
51793;DHT22;37850;53.178;6.376;2023-07-13T15:00:13;22.30;99.90
51793;DHT22;37850;53.178;6.376;2023-07-13T15:02:42;22.30;99.90
51793;DHT22;37850;53.178;6.376;2023-07-13T15:05:26;22.30;99.90
51793;DHT22;37850;53.178;6.376;2023-07-13T15:07:53;22.20;99.90
51793;DHT22;37850;53.178;6.376;2023-07-13T15:10:20;22.20;99.90
51793;DHT22;37850;53.178;6.376;2023-07-13T15:12:46;22.10;99.90
51793;DHT22;37850;53.178;6.376;2023-07-13T15:15:13;22.10;99.90
51793;DHT22;37850;53.178;6.376;2023-07-13T15:17:44;22.10;99.90
51793;DHT22;37850;53.178;6.376;2023-07-13T15:20:24;22.10;99.90
51793;DHT22;37850;53.178;6.376;2023-07-13T15:22:50;22.00;99.90
51793;DHT22;37850;53.178;6.376;2023-07-13T15:25:19;22.10;99.90
51793;DHT22;37850;53.178;6.376;2023-07-13T15:27:45;22.10;99.90
51793;DHT22;37850;53.178;6.376;2023-07-13T15:30:12;22.20;99.90
51793;DHT22;37850;53.178;6.376;2023-07-13T15:32:38;22.10;99.90
51793;DHT22;37850;53.178;6.376;2023-07-13T15:35:08;22.10;99.90
51793;DHT22;37850;53.178;6.376;2023-07-13T15:37:35;22.10;99.90
51793;DHT22;37850;53.178;6.376;2023-07-13T15:40:01;22.20;99.90
51793;DHT22;37850;53.178;6.376;2023-07-13T15:42:27;22.20;99.90
51793;DHT22;37850;53.178;6.376;2023-07-13T15:44:52;22.20;99.90
51793;DHT22;37850;53.178;6.376;2023-07-13T15:47:18;22.20;99.90
51793;DHT22;37850;53.178;6.376;2023-07-13T15:49:44;22.20;99.90
51793;DHT22;37850;53.178;6.376;2023-07-13T15:52:22;22.20;99.90
51793;DHT22;37850;53.178;6.376;2023-07-13T15:54:49;22.20;99.90
51793;DHT22;37850;53.178;6.376;2023-07-13T15:57:16;22.20;99.90
51793;DHT22;37850;53.178;6.376;2023-07-13T15:59:42;22.20;99.90
51793;DHT22;37850;53.178;6.376;2023-07-13T16:02:19;22.20;99.90
51793;DHT22;37850;53.178;6.376;2023-07-13T16:04:46;22.10;99.90
51793;DHT22;37850;53.178;6.376;2023-07-13T16:07:14;22.10;99.90
51793;DHT22;37850;53.178;6.376;2023-07-13T16:09:41;22.10;99.90
51793;DHT22;37850;53.178;6.376;2023-07-13T16:12:10;22.00;99.90
51793;DHT22;37850;53.178;6.376;2023-07-13T16:14:37;22.00;99.90
51793;DHT22;37850;53.178;6.376;2023-07-13T16:17:05;22.00;99.90